Dakar, Senegal

10:51 PM GMT on August 30, 2016 (GMT +0000)
Ngor Almadies | | Change Station

Elev 46 ft 14.74 °N, 17.51 °W | Updated 12 seconds ago

Scattered Clouds
Scattered Clouds
80.6 °F
Feels Like 88 °F
N
0.0
Wind Variable Wind from North
Gusts 4.0 mph

Today
High -- | Low -- °F
--% Chance of Precip.
Yesterday
High -- | Low -- °F
Precip. -- in
Pressure 29.92 in
Visibility 5.0 miles
Clouds Scattered Clouds 800 ft
Heat Index 88 °F
Dew Point 78 °F
Humidity 92%
Rainfall 1.36 in
Snow Depth Not available.
6:57 AM 7:23 PM
Waning Crescent, 2% visible
METAR GOOY 302230Z 19005KT 8000 SCT008 27/25 Q1013 NOSIG
Pressure 29.92 in
Visibility 5.0 miles
Clouds Scattered Clouds 800 ft
Heat Index 88 °F
Dew Point 78 °F
Humidity 92%
Rainfall 1.36 in
Snow Depth Not available.
6:57 AM 7:23 PM
Waning Crescent, 2% visible
METAR GOOY 302230Z 19005KT 8000 SCT008 27/25 Q1013 NOSIG

10-Day Weather Forecast

No radar image for this location.
×

Almanac

Astronomy

Aug. 30, 2016 Rise Set
Actual Time
Civil Twilight
Nautical Twilight
Astronomical Twilight
Moon
Length of Visible Light
Length of Day
Tomorrow will be .
, % of the Moon is Illuminated

Today's Extremes

Country Highs Country Lows

Community

WunderPhotos

Upload Photos

1,935,917 photos uploaded!

WunderBlog® & News

Nearby

Air Quality

  Air Quality AQ Index Pollutant
Not available.

Snow Depth

Station Depth Elevation

Earthquake Activity

City Distance Mag. Time & Date
Minimum magnitude displayed is 2.5.

Coastal Water Temperatures

Place Temperature

Stations

Nearby Weather Stations

Station Location Temp. Windchill Dew Point Humidity Wind Precip. Elev Updated Type